createdAt,value
2023-04-18T00:00:46.744Z,8.22
2023-04-18T00:03:16.702Z,8.20
2023-04-18T00:05:44.213Z,8.07
2023-04-18T00:08:13.993Z,8.13
2023-04-18T00:10:58.237Z,8.16
2023-04-18T00:13:35.331Z,8.23
2023-04-18T00:16:02.589Z,8.08
2023-04-18T00:18:30.076Z,7.94
2023-04-18T00:20:59.501Z,8.02
2023-04-18T00:23:28.528Z,7.80
2023-04-18T00:25:58.447Z,7.83
2023-04-18T00:28:25.494Z,7.82
2023-04-18T00:30:55.189Z,7.83
2023-04-18T00:33:28.852Z,7.77
2023-04-18T00:35:55.709Z,7.74
2023-04-18T00:38:28.236Z,7.72
2023-04-18T00:40:55.164Z,7.76
2023-04-18T00:43:23.966Z,7.66
2023-04-18T00:48:44.931Z,7.51
2023-04-18T00:51:12.433Z,7.46
2023-04-18T00:53:51.449Z,7.39
2023-04-18T00:56:19.442Z,7.39
2023-04-18T00:58:46.617Z,7.50
2023-04-18T01:01:13.668Z,7.46
2023-04-18T01:03:48.098Z,7.46
2023-04-18T01:06:16.788Z,7.52
2023-04-18T01:08:45.353Z,7.43
2023-04-18T01:11:22.312Z,7.47
2023-04-18T01:14:22.854Z,7.37
2023-04-18T01:16:55.726Z,7.26
2023-04-18T01:19:25.009Z,7.51
2023-04-18T01:21:59.366Z,7.31
2023-04-18T01:24:35.325Z,7.24
2023-04-18T01:27:16.889Z,7.32
2023-04-18T01:29:48.055Z,7.23
2023-04-18T01:32:23.048Z,7.13
2023-04-18T01:34:53.020Z,7.28
2023-04-18T01:37:22.716Z,7.42
2023-04-18T01:39:49.436Z,7.28
2023-04-18T01:42:19.507Z,7.11
2023-04-18T01:47:52.966Z,7.18
2023-04-18T01:50:30.245Z,7.34
2023-04-18T01:53:02.277Z,7.24
2023-04-18T01:55:38.227Z,7.08
2023-04-18T01:58:18.708Z,7.13
2023-04-18T02:00:57.779Z,7.33
2023-04-18T02:03:31.643Z,7.12
2023-04-18T02:06:10.538Z,7.11
2023-04-18T02:08:46.271Z,7.05
2023-04-18T02:11:13.565Z,7.03
2023-04-18T02:13:50.567Z,7.18
2023-04-18T02:16:19.984Z,6.91
2023-04-18T02:18:57.004Z,7.02
2023-04-18T02:21:26.730Z,6.95
2023-04-18T02:23:59.114Z,6.91
2023-04-18T02:26:26.257Z,6.85
2023-04-18T02:28:57.594Z,6.97
2023-04-18T02:31:29.476Z,7.00
2023-04-18T02:33:56.704Z,6.96
2023-04-18T02:36:31.226Z,6.95
2023-04-18T02:39:00.953Z,6.96
2023-04-18T02:41:39.510Z,6.79
2023-04-18T02:44:13.813Z,6.87
2023-04-18T02:47:00.694Z,6.76
2023-04-18T02:50:19.961Z,6.76
2023-04-18T02:53:00.196Z,6.83
2023-04-18T02:58:15.492Z,6.84
2023-04-18T03:00:44.514Z,6.60
2023-04-18T03:03:14.237Z,6.56
2023-04-18T03:05:53.026Z,6.65
2023-04-18T03:08:25.903Z,6.52
2023-04-18T03:10:56.253Z,6.57
2023-04-18T03:13:30.364Z,6.68
2023-04-18T03:16:02.167Z,6.43
2023-04-18T03:18:49.743Z,6.61
2023-04-18T03:21:22.056Z,6.34
2023-04-18T03:23:48.977Z,6.40
2023-04-18T03:26:22.959Z,6.41
2023-04-18T03:28:52.240Z,6.45
2023-04-18T03:31:23.982Z,6.33
2023-04-18T03:33:53.584Z,6.49
2023-04-18T03:36:49.862Z,6.27
2023-04-18T03:39:22.461Z,6.54
2023-04-18T03:41:56.859Z,6.36
2023-04-18T03:44:26.265Z,6.40
2023-04-18T03:47:00.954Z,6.36
2023-04-18T03:49:30.791Z,6.19
2023-04-18T03:51:58.040Z,6.11
2023-04-18T03:54:25.274Z,6.09
2023-04-18T03:56:52.325Z,6.25
2023-04-18T03:59:19.466Z,6.25
2023-04-18T04:01:46.689Z,6.08
2023-04-18T04:04:17.920Z,6.30
2023-04-18T04:06:45.528Z,6.24
2023-04-18T04:09:23.855Z,6.23
2023-04-18T04:11:50.881Z,6.09
2023-04-18T04:14:24.748Z,6.15
2023-04-18T04:16:57.709Z,6.03
2023-04-18T04:19:24.631Z,6.09
2023-04-18T04:21:51.378Z,6.10
2023-04-18T04:24:28.785Z,5.92
2023-04-18T04:26:56.549Z,6.23
2023-04-18T04:29:34.173Z,5.99
2023-04-18T04:32:01.337Z,6.04
2023-04-18T04:34:28.230Z,6.19
2023-04-18T04:39:50.249Z,6.24
2023-04-18T04:42:17.737Z,6.09
2023-04-18T04:44:44.810Z,6.18
2023-04-18T04:47:14.293Z,6.04
2023-04-18T04:52:27.310Z,6.04
2023-04-18T04:54:56.841Z,6.00
2023-04-18T04:57:23.657Z,6.01
2023-04-18T04:59:59.550Z,6.14
2023-04-18T05:02:57.922Z,5.99
2023-04-18T05:30:43.884Z,6.33
2023-04-18T05:33:18.353Z,6.19
2023-04-18T05:36:01.886Z,6.32
2023-04-18T05:38:42.061Z,6.33
2023-04-18T06:04:42.697Z,6.66
2023-04-18T06:07:10.195Z,6.44
2023-04-18T06:09:38.655Z,6.50
2023-04-18T06:12:08.988Z,6.79
2023-04-18T06:14:37.912Z,6.82
2023-04-18T06:17:07.611Z,6.85
2023-04-18T06:19:34.312Z,6.62
2023-04-18T06:22:07.044Z,6.77
2023-04-18T06:24:37.568Z,6.79
2023-04-18T06:27:06.420Z,7.03
2023-04-18T06:29:35.043Z,6.98
2023-04-18T06:32:09.409Z,6.86
2023-04-18T06:37:22.454Z,6.88
2023-04-18T06:39:54.376Z,6.96
2023-04-18T06:42:24.620Z,6.97
2023-04-18T06:45:01.271Z,7.17
2023-04-18T06:47:32.838Z,7.17
2023-04-18T06:49:59.711Z,7.21
2023-04-18T06:52:26.441Z,7.30
2023-04-18T06:54:53.835Z,7.54
2023-04-18T06:57:26.794Z,7.45
2023-04-18T06:59:55.075Z,7.72
2023-04-18T07:02:22.252Z,7.53
2023-04-18T07:04:50.298Z,7.44
2023-04-18T07:07:19.345Z,7.45
2023-04-18T07:09:46.231Z,7.56
2023-04-18T07:12:18.008Z,7.74
2023-04-18T07:14:46.982Z,7.69
2023-04-18T07:17:13.922Z,7.80
2023-04-18T07:19:50.094Z,7.88
2023-04-18T07:22:16.866Z,7.92
2023-04-18T07:24:46.679Z,7.85
2023-04-18T07:27:19.676Z,7.94
2023-04-18T07:29:50.833Z,8.02
2023-04-18T07:32:18.979Z,7.98
2023-04-18T07:34:49.631Z,7.89
2023-04-18T07:37:20.983Z,8.02
2023-04-18T07:39:52.268Z,8.17
2023-04-18T07:42:23.603Z,8.20
2023-04-18T07:44:56.599Z,8.20
2023-04-18T07:47:23.612Z,8.21
2023-04-18T07:49:50.557Z,8.45
2023-04-18T07:52:18.670Z,8.20
2023-04-18T07:54:45.915Z,8.45
2023-04-18T07:57:14.040Z,8.51
2023-04-18T07:59:44.106Z,8.82
2023-04-18T08:02:11.993Z,8.83
2023-04-18T08:04:49.835Z,9.08
2023-04-18T08:07:17.244Z,8.93
2023-04-18T08:09:44.304Z,9.07
2023-04-18T08:12:11.352Z,9.09
2023-04-18T08:14:38.582Z,9.20
2023-04-18T08:17:11.930Z,9.22
2023-04-18T08:19:38.527Z,9.20
2023-04-18T08:22:11.164Z,9.37
2023-04-18T08:24:38.780Z,9.51
2023-04-18T08:27:08.995Z,9.58
2023-04-18T08:29:35.669Z,9.81
2023-04-18T08:32:14.622Z,9.96
2023-04-18T08:34:51.831Z,10.03
2023-04-18T08:37:18.847Z,9.92
2023-04-18T08:39:45.859Z,10.36
2023-04-18T08:42:19.461Z,10.18
2023-04-18T08:44:50.175Z,10.25
2023-04-18T08:47:17.098Z,10.45
2023-04-18T08:49:47.128Z,10.26
2023-04-18T08:52:17.278Z,10.13
2023-04-18T08:54:48.694Z,10.30
2023-04-18T08:57:18.420Z,9.99
2023-04-18T08:59:51.132Z,10.16
2023-04-18T09:02:26.880Z,10.24
2023-04-18T09:04:54.118Z,9.95
2023-04-18T09:07:31.556Z,9.93
2023-04-18T09:09:58.188Z,10.34
2023-04-18T09:12:31.594Z,10.46
2023-04-18T09:15:23.321Z,10.60
2023-04-18T09:17:55.324Z,10.50
2023-04-18T09:20:34.677Z,10.68
2023-04-18T09:23:14.664Z,10.67
2023-04-18T09:25:44.526Z,10.53
2023-04-18T09:28:33.847Z,10.58
2023-04-18T09:31:16.274Z,10.62
2023-04-18T09:33:55.773Z,10.70
2023-04-18T09:36:27.132Z,10.57
2023-04-18T09:38:56.576Z,10.60
2023-04-18T09:41:31.500Z,10.65
2023-04-18T09:44:15.138Z,10.58
2023-04-18T09:46:46.093Z,10.54
2023-04-18T09:49:15.974Z,10.29
2023-04-18T09:51:44.457Z,10.61
2023-04-18T09:54:11.452Z,10.71
2023-04-18T09:56:44.315Z,10.80
2023-04-18T09:59:12.723Z,10.86
2023-04-18T10:01:41.096Z,10.88
2023-04-18T10:04:09.209Z,10.95
2023-04-18T10:06:43.808Z,10.92
2023-04-18T10:09:11.830Z,10.99
2023-04-18T10:11:43.501Z,11.07
2023-04-18T10:14:13.771Z,11.03
2023-04-18T10:16:50.516Z,11.33
2023-04-18T10:19:26.058Z,11.22
2023-04-18T10:21:59.795Z,11.44
2023-04-18T10:24:45.598Z,11.59
2023-04-18T10:27:12.875Z,11.41
2023-04-18T10:30:09.083Z,11.71
2023-04-18T10:32:37.281Z,11.53
2023-04-18T10:35:11.966Z,11.36
2023-04-18T10:37:51.604Z,11.32
2023-04-18T10:40:33.419Z,11.41
2023-04-18T10:43:01.423Z,11.50
2023-04-18T10:45:31.037Z,11.59
2023-04-18T10:48:31.083Z,11.70
2023-04-18T10:51:18.556Z,11.78
2023-04-18T10:53:56.668Z,11.90
2023-04-18T10:56:28.274Z,12.00
2023-04-18T10:58:56.129Z,11.87
2023-04-18T11:01:32.694Z,11.60
2023-04-18T11:04:05.236Z,11.71
2023-04-18T11:06:32.592Z,11.93
2023-04-18T11:09:14.637Z,12.04
2023-04-18T11:11:44.145Z,12.13
2023-04-18T11:14:11.441Z,12.02
2023-04-18T11:16:41.900Z,12.17
2023-04-18T11:19:29.120Z,12.23
2023-04-18T11:22:05.406Z,12.23
2023-04-18T11:24:37.106Z,12.34
2023-04-18T11:27:13.538Z,12.32
2023-04-18T11:29:45.403Z,12.27
2023-04-18T11:32:16.345Z,12.33
2023-04-18T11:34:45.237Z,12.12
2023-04-18T11:37:15.678Z,11.99
2023-04-18T11:39:43.932Z,12.25
2023-04-18T11:42:14.039Z,12.23
2023-04-18T11:44:45.435Z,12.24
2023-04-18T11:47:30.154Z,12.36
2023-04-18T11:50:01.733Z,12.56
2023-04-18T11:52:31.327Z,12.81
2023-04-18T11:55:20.666Z,12.86
2023-04-18T11:58:11.382Z,12.73
2023-04-18T12:00:41.760Z,12.94
2023-04-18T12:03:22.753Z,12.97
2023-04-18T12:05:59.979Z,13.07
2023-04-18T12:08:36.595Z,13.15
2023-04-18T12:11:06.037Z,13.35
2023-04-18T12:13:33.090Z,13.32
2023-04-18T12:16:03.231Z,13.61
2023-04-18T12:18:36.153Z,13.69
2023-04-18T12:21:10.694Z,13.47
2023-04-18T12:23:43.063Z,13.55
2023-04-18T12:26:19.046Z,13.43
2023-04-18T12:28:54.209Z,13.52
2023-04-18T12:31:28.897Z,13.38
2023-04-18T12:33:55.757Z,13.46
2023-04-18T12:36:23.542Z,13.63
2023-04-18T12:38:56.538Z,13.53
2023-04-18T12:41:30.498Z,13.64
2023-04-18T12:43:57.151Z,13.68
2023-04-18T12:46:25.340Z,13.77
2023-04-18T12:48:54.230Z,13.72
2023-04-18T12:51:21.850Z,13.58
2023-04-18T12:53:57.154Z,13.52
2023-04-18T12:56:34.623Z,13.60
2023-04-18T12:59:08.356Z,13.52
2023-04-18T13:01:37.685Z,13.77
2023-04-18T13:04:12.429Z,13.64
2023-04-18T13:06:43.293Z,13.56
2023-04-18T13:09:10.701Z,13.82
2023-04-18T13:11:40.971Z,13.70
2023-04-18T13:14:12.651Z,13.80
2023-04-18T13:16:43.817Z,13.56
2023-04-18T13:19:15.332Z,13.55
2023-04-18T13:21:43.417Z,13.58
2023-04-18T13:24:12.578Z,13.39
2023-04-18T13:26:47.930Z,13.39
2023-04-18T13:29:14.774Z,13.36
2023-04-18T13:31:46.951Z,13.38
2023-04-18T13:34:18.314Z,13.41
2023-04-18T13:36:44.853Z,13.56
2023-04-18T13:39:13.422Z,13.60
2023-04-18T13:41:43.071Z,13.75
2023-04-18T13:44:12.971Z,13.62
2023-04-18T13:46:39.800Z,13.73
2023-04-18T13:49:06.817Z,13.58
2023-04-18T13:51:37.781Z,13.56
2023-04-18T13:54:07.763Z,13.58
2023-04-18T13:56:34.612Z,13.50
2023-04-18T13:59:02.455Z,13.67
2023-04-18T14:01:32.760Z,13.65
2023-04-18T14:04:00.009Z,13.54
2023-04-18T14:06:29.890Z,13.73
2023-04-18T14:08:56.597Z,13.77
2023-04-18T14:11:26.124Z,13.77
2023-04-18T14:13:55.816Z,13.87
2023-04-18T14:16:26.532Z,13.86
2023-04-18T14:18:54.202Z,13.89
2023-04-18T14:21:22.584Z,13.81
2023-04-18T14:23:52.589Z,13.95
2023-04-18T14:26:21.524Z,13.62
2023-04-18T14:28:52.629Z,13.68
2023-04-18T14:31:20.745Z,13.78
2023-04-18T14:33:50.379Z,13.79
2023-04-18T14:36:23.129Z,13.83
2023-04-18T14:38:50.279Z,14.12
2023-04-18T14:41:20.037Z,14.11
2023-04-18T14:43:47.597Z,14.41
2023-04-18T14:46:19.722Z,14.27
2023-04-18T14:48:51.643Z,14.08
2023-04-18T14:51:18.578Z,14.18
2023-04-18T14:53:48.195Z,14.32
2023-04-18T14:56:16.296Z,14.44
2023-04-18T14:58:46.102Z,14.48
2023-04-18T15:01:13.324Z,14.52
2023-04-18T15:03:40.634Z,14.79
2023-04-18T15:06:08.446Z,14.89
2023-04-18T15:08:38.051Z,15.12
2023-04-18T15:11:08.640Z,15.19
2023-04-18T15:13:35.676Z,15.19
2023-04-18T15:16:02.621Z,15.51
2023-04-18T15:18:32.498Z,15.56
2023-04-18T15:20:59.972Z,15.76
2023-04-18T15:23:27.671Z,16.00
2023-04-18T15:25:54.593Z,15.97
2023-04-18T15:28:21.381Z,15.78
2023-04-18T15:30:50.452Z,15.76
2023-04-18T15:33:20.621Z,15.53
2023-04-18T15:35:47.726Z,15.50
2023-04-18T15:38:14.509Z,15.59
2023-04-18T15:40:43.672Z,15.61
2023-04-18T15:43:10.450Z,15.51
2023-04-18T15:45:39.469Z,15.51
2023-04-18T15:48:08.083Z,15.39
2023-04-18T15:50:38.723Z,15.08
2023-04-18T15:53:06.038Z,14.97
2023-04-18T15:55:35.200Z,14.86
2023-04-18T15:58:02.401Z,14.87
2023-04-18T16:00:31.153Z,15.09
2023-04-18T16:02:58.517Z,15.06
2023-04-18T16:05:28.945Z,15.05
2023-04-18T16:07:56.605Z,14.95
2023-04-18T16:10:25.092Z,15.14
2023-04-18T16:12:52.770Z,15.05
2023-04-18T16:15:22.817Z,14.93
2023-04-18T16:17:51.218Z,14.87
2023-04-18T16:20:18.114Z,14.91
2023-04-18T16:22:44.900Z,14.93
2023-04-18T16:25:12.968Z,14.87
2023-04-18T16:27:39.611Z,15.17
2023-04-18T16:30:10.364Z,15.24
2023-04-18T16:32:40.386Z,15.13
2023-04-18T16:35:10.324Z,15.16
2023-04-18T16:37:38.282Z,15.13
2023-04-18T16:40:30.545Z,15.31
2023-04-18T16:42:57.884Z,14.93
2023-04-18T16:45:26.934Z,14.72
2023-04-18T16:47:54.091Z,14.90
2023-04-18T16:50:25.865Z,14.88
2023-04-18T16:52:55.151Z,14.66
2023-04-18T16:55:23.547Z,14.79
2023-04-18T16:57:51.116Z,14.78
2023-04-18T17:00:22.266Z,14.50
2023-04-18T17:02:49.478Z,14.49
2023-04-18T17:05:25.376Z,14.39
2023-04-18T17:07:53.222Z,14.28
2023-04-18T17:10:20.269Z,14.31
2023-04-18T17:12:49.540Z,14.04
2023-04-18T17:15:23.242Z,14.04
2023-04-18T17:17:53.452Z,14.20
2023-04-18T17:20:20.910Z,14.23
2023-04-18T17:22:51.455Z,14.11
2023-04-18T17:25:46.342Z,13.90
2023-04-18T17:28:14.163Z,13.95
2023-04-18T17:30:45.650Z,14.25
2023-04-18T17:33:12.424Z,14.20
2023-04-18T17:35:41.742Z,14.10
2023-04-18T17:38:10.938Z,14.07
2023-04-18T17:40:38.551Z,13.92
2023-04-18T17:43:07.612Z,14.11
2023-04-18T17:45:37.492Z,13.82
2023-04-18T17:48:08.723Z,13.91
2023-04-18T17:50:37.913Z,13.81
2023-04-18T17:53:07.653Z,13.79
2023-04-18T17:55:37.780Z,13.61
2023-04-18T17:58:07.706Z,13.46
2023-04-18T18:00:36.107Z,13.45
2023-04-18T18:03:06.114Z,13.66
2023-04-18T18:05:33.440Z,13.46
2023-04-18T18:08:05.704Z,13.37
2023-04-18T18:10:33.937Z,13.29
2023-04-18T18:13:02.024Z,13.47
2023-04-18T18:15:31.879Z,13.30
2023-04-18T18:18:05.974Z,13.12
2023-04-18T18:20:32.805Z,13.04
2023-04-18T18:23:01.819Z,13.02
2023-04-18T18:25:30.084Z,13.12
2023-04-18T18:28:00.140Z,12.96
2023-04-18T18:30:27.208Z,13.02
2023-04-18T18:32:56.586Z,12.90
2023-04-18T18:35:28.162Z,12.77
2023-04-18T18:37:54.852Z,12.70
2023-04-18T18:40:21.683Z,12.68
2023-04-18T18:42:56.404Z,12.51
2023-04-18T18:45:23.539Z,12.58
2023-04-18T18:47:55.009Z,12.48
2023-04-18T18:50:23.359Z,12.23
2023-04-18T18:52:54.389Z,12.43
2023-04-18T18:55:21.191Z,12.33
2023-04-18T18:57:49.408Z,11.96
2023-04-18T19:00:26.375Z,12.17
2023-04-18T19:02:55.822Z,11.88
2023-04-18T19:05:22.786Z,11.97
2023-04-18T19:07:51.901Z,11.81
2023-04-18T19:10:22.945Z,11.79
2023-04-18T19:12:49.819Z,11.61
2023-04-18T19:15:17.945Z,11.69
2023-04-18T19:17:44.758Z,11.59
2023-04-18T19:20:16.307Z,11.75
2023-04-18T19:23:11.573Z,11.68
2023-04-18T19:25:40.784Z,11.60
2023-04-18T19:28:07.823Z,11.45
2023-04-18T19:30:34.766Z,11.36
2023-04-18T19:33:09.839Z,11.22
2023-04-18T19:35:38.912Z,11.21
2023-04-18T19:38:05.813Z,11.39
2023-04-18T19:40:33.512Z,11.31
2023-04-18T19:43:05.024Z,11.26
2023-04-18T19:45:32.017Z,11.04
2023-04-18T19:47:58.817Z,11.05
2023-04-18T19:50:26.050Z,11.06
2023-04-18T19:52:58.831Z,10.95
2023-04-18T19:55:25.614Z,10.91
2023-04-18T19:58:03.929Z,10.90
2023-04-18T20:00:31.015Z,10.67
2023-04-18T20:02:59.044Z,10.88
2023-04-18T20:05:26.418Z,10.92
2023-04-18T20:07:53.138Z,10.75
2023-04-18T20:10:23.520Z,10.81
2023-04-18T20:12:50.309Z,10.72
2023-04-18T20:15:18.133Z,10.69
2023-04-18T20:17:44.710Z,10.73
2023-04-18T20:20:12.094Z,10.63
2023-04-18T20:22:40.367Z,10.54
2023-04-18T20:25:07.086Z,10.56
2023-04-18T20:27:34.123Z,10.54
2023-04-18T20:30:01.014Z,10.53
2023-04-18T20:32:28.292Z,10.52
2023-04-18T20:34:54.913Z,10.48
2023-04-18T20:37:21.885Z,10.43
2023-04-18T20:39:48.920Z,10.33
2023-04-18T20:42:15.860Z,10.32
2023-04-18T20:44:47.039Z,10.40
2023-04-18T20:47:15.464Z,10.35
2023-04-18T20:49:45.143Z,10.24
2023-04-18T20:52:11.754Z,10.25
2023-04-18T20:54:38.409Z,10.12
2023-04-18T20:57:05.032Z,10.15
2023-04-18T20:59:31.537Z,10.08
2023-04-18T21:01:58.371Z,10.08
2023-04-18T21:04:25.338Z,10.07
2023-04-18T21:06:52.037Z,10.05
2023-04-18T21:09:19.183Z,10.06
2023-04-18T21:11:45.856Z,9.97
2023-04-18T21:14:12.669Z,10.00
2023-04-18T21:16:40.267Z,9.93
2023-04-18T21:19:11.105Z,9.92
2023-04-18T21:21:37.624Z,9.87
2023-04-18T21:24:05.909Z,9.82
2023-04-18T21:26:32.530Z,9.82
2023-04-18T21:29:00.364Z,9.75
2023-04-18T21:31:30.429Z,9.70
2023-04-18T21:33:58.630Z,9.61
2023-04-18T21:36:27.043Z,9.56
2023-04-18T21:38:54.548Z,9.60
2023-04-18T21:41:22.144Z,9.64
2023-04-18T21:43:49.214Z,9.51
2023-04-18T21:46:16.424Z,9.38
2023-04-18T21:48:46.156Z,9.50
2023-04-18T21:51:14.971Z,9.43
2023-04-18T21:53:42.302Z,9.38
2023-04-18T21:56:09.457Z,9.45
2023-04-18T21:58:36.101Z,9.48
2023-04-18T22:01:03.624Z,9.43
2023-04-18T22:03:31.829Z,9.40
2023-04-18T22:05:58.978Z,9.42
2023-04-18T22:08:26.848Z,9.27
2023-04-18T22:10:55.010Z,9.32
2023-04-18T22:13:30.167Z,9.31
2023-04-18T22:15:58.509Z,9.26
2023-04-18T22:18:30.720Z,9.30
2023-04-18T22:20:57.355Z,9.31
2023-04-18T22:23:25.695Z,9.28
2023-04-18T22:25:52.102Z,9.23
2023-04-18T22:28:18.611Z,9.17
2023-04-18T22:30:45.977Z,9.15
2023-04-18T22:33:13.299Z,9.12
2023-04-18T22:35:40.133Z,9.01
2023-04-18T22:38:06.872Z,9.01
2023-04-18T22:40:33.383Z,9.03
2023-04-18T22:43:00.001Z,9.12
2023-04-18T22:45:27.692Z,9.01
2023-04-18T22:47:54.381Z,9.11
2023-04-18T22:50:21.795Z,9.09
2023-04-18T22:52:48.711Z,9.12
2023-04-18T22:55:16.459Z,9.14
2023-04-18T22:57:43.080Z,9.08
2023-04-18T23:00:10.200Z,9.00
2023-04-18T23:02:37.074Z,8.99
2023-04-18T23:05:06.004Z,8.94
2023-04-18T23:07:33.998Z,8.91
2023-04-18T23:10:05.899Z,8.84
2023-04-18T23:12:32.589Z,8.95
2023-04-18T23:14:59.219Z,8.92
2023-04-18T23:17:25.977Z,8.80
2023-04-18T23:19:52.800Z,8.90
2023-04-18T23:22:19.417Z,8.76
2023-04-18T23:24:46.168Z,8.81
2023-04-18T23:27:15.930Z,8.85
2023-04-18T23:29:42.661Z,8.83
2023-04-18T23:32:09.290Z,8.67
2023-04-18T23:34:35.855Z,8.72
2023-04-18T23:37:02.360Z,8.76
2023-04-18T23:39:28.956Z,8.84
2023-04-18T23:41:56.234Z,8.81
2023-04-18T23:44:23.153Z,8.82
2023-04-18T23:46:50.024Z,8.76
2023-04-18T23:49:16.595Z,8.65
2023-04-18T23:51:43.546Z,8.67
2023-04-18T23:54:10.468Z,8.66
2023-04-18T23:56:37.420Z,8.61
2023-04-18T23:59:04.165Z,8.64
